Lopez Island, Washington
Current Conditions -  °F | °C
As of 5:53 AM on Friday 24 Oct 2014 (Local Time) from KFHR Reporting Station
Overcast Overcast  
Wind Chill: 50°   Ceiling: 1300
Heat Index: 50°   Visibility: 10mi
Dew Point: 47°   Wind: 3mph
Humidity: 89%   Direction: 120°ESE
Pressure: 30.03"   Gusts: NA
Location:  48.51°N, 122.91°W
Report Text: KFHR 241253Z AUTO 12003KT 10SM OVC013 10/08 A3003 RMK AO2 RAB03E15 SLP169 P0000 T01000083
Loading
Personal Weather Stations






























Interactive Weather Map
Tropical Storm Tracking
New forecast layout! Learn more

10-Day Weather Forecast

Advertisements
Track Severe Weather on mobile